createdAt,value
2018-07-23T00:01:56.001Z,75.80
2018-07-23T00:04:24.365Z,74.40
2018-07-23T00:06:52.697Z,74.70
2018-07-23T00:09:20.997Z,75.50
2018-07-23T00:11:49.307Z,74.50
2018-07-23T00:16:45.889Z,75.60
2018-07-23T00:19:14.240Z,76.00
2018-07-23T00:21:42.776Z,75.00
2018-07-23T00:24:11.142Z,74.80
2018-07-23T00:26:39.491Z,74.80
2018-07-23T00:29:07.822Z,74.40
2018-07-23T00:31:36.172Z,73.90
2018-07-23T00:34:04.505Z,73.40
2018-07-23T00:36:32.866Z,75.00
2018-07-23T00:39:01.226Z,75.90
2018-07-23T00:41:29.566Z,75.00
2018-07-23T00:43:57.937Z,75.60
2018-07-23T00:46:26.297Z,75.40
2018-07-23T00:51:22.732Z,76.50
2018-07-23T00:53:51.052Z,76.40
2018-07-23T00:56:19.374Z,76.60
2018-07-23T00:58:47.666Z,77.80
2018-07-23T01:01:15.967Z,77.20
2018-07-23T01:03:44.326Z,77.50
2018-07-23T01:06:12.626Z,77.90
2018-07-23T01:08:40.987Z,77.90
2018-07-23T01:11:09.348Z,77.00
2018-07-23T01:13:37.685Z,77.70
2018-07-23T01:16:06.045Z,77.50
2018-07-23T01:18:34.408Z,77.70
2018-07-23T01:21:02.891Z,78.60
2018-07-23T01:23:31.234Z,78.10
2018-07-23T01:25:59.599Z,78.30
2018-07-23T01:28:27.983Z,79.10
2018-07-23T01:30:56.336Z,78.10
2018-07-23T01:33:24.702Z,78.60
2018-07-23T01:35:53.094Z,78.00
2018-07-23T01:38:21.395Z,78.30
2018-07-23T01:40:49.730Z,78.00
2018-07-23T01:43:18.092Z,78.70
2018-07-23T01:45:46.422Z,79.00
2018-07-23T01:48:14.769Z,78.40
2018-07-23T01:50:43.387Z,78.90
2018-07-23T01:53:11.686Z,78.70
2018-07-23T01:55:40.047Z,79.20
2018-07-23T01:58:08.382Z,79.00
2018-07-23T02:00:36.858Z,78.90
2018-07-23T02:03:05.217Z,78.70
2018-07-23T02:05:33.691Z,78.30
2018-07-23T02:08:02.108Z,79.00
2018-07-23T02:10:30.402Z,79.50
2018-07-23T02:12:58.933Z,79.80
2018-07-23T02:15:27.282Z,80.10
2018-07-23T02:17:55.634Z,80.20
2018-07-23T02:20:24.055Z,80.70
2018-07-23T02:22:52.450Z,80.70
2018-07-23T02:25:20.802Z,81.20
2018-07-23T02:27:49.158Z,81.50
2018-07-23T02:30:17.583Z,81.60
2018-07-23T02:32:46.023Z,81.80
2018-07-23T02:35:15.248Z,81.80
2018-07-23T02:37:43.923Z,82.10
2018-07-23T02:40:12.274Z,82.20
2018-07-23T02:42:40.677Z,82.20
2018-07-23T02:45:09.111Z,82.40
2018-07-23T02:47:37.506Z,82.70
2018-07-23T02:52:34.123Z,83.10
2018-07-23T02:55:03.049Z,83.20
2018-07-23T02:57:31.414Z,83.30
2018-07-23T03:00:00.127Z,83.50
2018-07-23T03:02:29.442Z,83.60
2018-07-23T03:04:57.841Z,83.90
2018-07-23T03:07:26.235Z,84.30
2018-07-23T03:09:54.587Z,84.40
2018-07-23T03:12:23.026Z,84.60
2018-07-23T03:14:51.446Z,84.40
2018-07-23T03:17:19.809Z,84.60
2018-07-23T03:19:48.253Z,84.80
2018-07-23T03:22:16.893Z,85.00
2018-07-23T03:24:45.607Z,85.00
2018-07-23T03:27:14.020Z,84.60
2018-07-23T03:29:42.418Z,85.00
2018-07-23T03:32:10.761Z,85.10
2018-07-23T03:34:39.179Z,85.10
2018-07-23T03:37:07.534Z,85.00
2018-07-23T03:39:35.937Z,85.10
2018-07-23T03:42:04.318Z,85.20
2018-07-23T03:44:32.859Z,85.00
2018-07-23T03:47:01.212Z,85.00
2018-07-23T03:49:29.593Z,85.20
2018-07-23T03:51:57.964Z,85.30
2018-07-23T03:54:26.315Z,85.20
2018-07-23T03:56:55.251Z,85.40
2018-07-23T03:59:23.623Z,84.60
2018-07-23T04:01:51.984Z,84.50
2018-07-23T04:04:20.520Z,84.20
2018-07-23T04:06:49.195Z,84.00
2018-07-23T04:09:17.800Z,83.80
2018-07-23T04:11:46.354Z,84.00
2018-07-23T04:14:15.282Z,83.40
2018-07-23T04:19:11.742Z,83.50
2018-07-23T04:21:40.110Z,83.20
2018-07-23T04:26:36.489Z,83.70
2018-07-23T04:29:04.927Z,83.70
2018-07-23T04:31:33.547Z,83.80
2018-07-23T04:34:01.903Z,83.50
2018-07-23T04:36:30.286Z,83.40
2018-07-23T04:41:33.460Z,83.20
2018-07-23T04:44:01.819Z,83.50
2018-07-23T04:46:30.222Z,83.10
2018-07-23T04:48:58.877Z,82.80
2018-07-23T04:51:27.253Z,82.50
2018-07-23T04:53:55.721Z,82.70
2018-07-23T04:56:24.110Z,82.50
2018-07-23T04:58:52.460Z,82.30
2018-07-23T05:01:20.919Z,82.20
2018-07-23T05:03:49.282Z,82.40
2018-07-23T05:06:17.827Z,82.20
2018-07-23T05:08:46.216Z,81.80
2018-07-23T05:11:14.546Z,82.00
2018-07-23T05:13:42.909Z,81.80
2018-07-23T05:16:11.273Z,81.40
2018-07-23T05:18:39.582Z,82.60
2018-07-23T05:21:09.152Z,81.80
2018-07-23T05:23:38.267Z,81.60
2018-07-23T05:26:07.244Z,81.60
2018-07-23T05:31:04.077Z,81.20
2018-07-23T05:33:32.386Z,80.90
2018-07-23T05:36:00.983Z,80.40
2018-07-23T05:38:29.593Z,80.60
2018-07-23T05:40:57.914Z,80.40
2018-07-23T05:43:26.247Z,80.20
2018-07-23T05:45:56.658Z,80.00
2018-07-23T05:48:29.356Z,79.60
2018-07-23T05:53:38.700Z,79.60
2018-07-23T05:56:07.328Z,79.50
2018-07-23T05:58:35.665Z,79.60
2018-07-23T06:01:03.996Z,79.70
2018-07-23T06:03:32.367Z,79.30
2018-07-23T06:06:00.719Z,79.30
2018-07-23T06:08:29.117Z,79.00
2018-07-23T06:10:57.493Z,78.70
2018-07-23T06:13:25.900Z,78.60
2018-07-23T06:15:54.252Z,78.60
2018-07-23T06:18:22.631Z,78.40
2018-07-23T06:20:50.994Z,78.10
2018-07-23T06:23:19.352Z,77.70
2018-07-23T06:25:47.768Z,77.40
2018-07-23T06:28:16.138Z,77.10
2018-07-23T06:30:44.500Z,77.00
2018-07-23T06:33:12.879Z,76.30
2018-07-23T06:35:41.304Z,76.30
2018-07-23T06:38:09.645Z,75.60
2018-07-23T06:40:38.017Z,75.40
2018-07-23T06:43:06.425Z,75.50
2018-07-23T06:45:34.802Z,74.70
2018-07-23T06:48:03.719Z,75.10
2018-07-23T06:50:32.818Z,74.50
2018-07-23T06:53:01.461Z,74.90
2018-07-23T06:55:29.814Z,74.50
2018-07-23T06:57:58.179Z,74.50
2018-07-23T07:00:26.571Z,74.10
2018-07-23T07:02:54.945Z,74.70
2018-07-23T07:05:23.272Z,73.60
2018-07-23T07:07:51.892Z,73.40
2018-07-23T07:10:20.274Z,73.20
2018-07-23T07:12:48.622Z,73.00
2018-07-23T07:15:17.039Z,73.10
2018-07-23T07:17:45.429Z,72.70
2018-07-23T07:20:13.837Z,72.20
2018-07-23T07:22:42.235Z,72.40
2018-07-23T07:25:11.374Z,71.80
2018-07-23T07:27:39.711Z,71.20
2018-07-23T07:30:09.914Z,70.60
2018-07-23T07:32:38.275Z,70.80
2018-07-23T07:35:06.701Z,70.20
2018-07-23T07:37:35.077Z,70.20
2018-07-23T07:40:03.491Z,70.10
2018-07-23T07:42:31.924Z,70.20
2018-07-23T07:45:00.277Z,69.60
2018-07-23T07:47:28.639Z,69.90
2018-07-23T07:49:57.041Z,69.90
2018-07-23T07:52:25.414Z,69.50
2018-07-23T07:54:53.781Z,69.60
2018-07-23T07:57:22.178Z,69.10
2018-07-23T07:59:50.598Z,68.90
2018-07-23T08:02:18.959Z,68.80
2018-07-23T08:04:47.409Z,68.90
2018-07-23T08:07:15.829Z,68.50
2018-07-23T08:09:44.197Z,67.30
2018-07-23T08:12:12.784Z,67.00
2018-07-23T08:14:41.229Z,66.90
2018-07-23T08:17:09.622Z,65.60
2018-07-23T08:22:06.464Z,65.30
2018-07-23T08:24:34.789Z,65.00
2018-07-23T08:27:03.240Z,64.40
2018-07-23T08:29:32.630Z,64.20
2018-07-23T08:34:29.186Z,63.40
2018-07-23T08:36:57.633Z,62.90
2018-07-23T08:39:25.903Z,62.70
2018-07-23T08:41:54.195Z,62.70
2018-07-23T08:44:22.537Z,62.90
2018-07-23T08:46:50.854Z,61.80
2018-07-23T08:49:19.257Z,62.30
2018-07-23T08:51:47.672Z,61.50
2018-07-23T08:54:16.211Z,61.10
2018-07-23T08:56:44.575Z,60.60
2018-07-23T10:25:47.322Z,60.60
2018-07-23T10:28:16.670Z,53.50
2018-07-23T10:30:45.971Z,53.10
2018-07-23T10:35:42.458Z,52.00
2018-07-23T10:38:10.778Z,52.30
2018-07-23T10:40:39.123Z,51.90
2018-07-23T10:43:07.500Z,52.00
2018-07-23T10:45:35.888Z,51.60
2018-07-23T10:48:04.280Z,51.60
2018-07-23T10:50:32.683Z,51.50
2018-07-23T10:53:01.091Z,51.40
2018-07-23T10:55:29.457Z,51.20
2018-07-23T10:57:58.036Z,51.20
2018-07-23T11:00:26.397Z,50.70
2018-07-23T11:02:54.762Z,51.20
2018-07-23T11:05:23.163Z,51.60
2018-07-23T11:07:51.510Z,50.60
2018-07-23T11:10:20.311Z,50.40
2018-07-23T11:12:48.730Z,50.50
2018-07-23T11:15:17.039Z,50.40
2018-07-23T11:17:45.414Z,49.70
2018-07-23T13:06:31.719Z,50.40
2018-07-23T13:09:00.047Z,43.90
2018-07-23T13:11:28.461Z,43.20
2018-07-23T13:13:56.768Z,42.20
2018-07-23T13:16:25.199Z,42.00
2018-07-23T13:18:53.910Z,42.40
2018-07-23T13:21:22.290Z,41.60
2018-07-23T13:23:50.882Z,41.40
2018-07-23T13:26:19.285Z,41.80
2018-07-23T13:28:47.768Z,42.30
2018-07-23T13:31:16.347Z,42.00
2018-07-23T13:33:44.729Z,41.20
2018-07-23T13:36:13.344Z,41.50
2018-07-23T13:38:42.331Z,40.00
2018-07-23T13:44:01.348Z,40.30
2018-07-23T13:46:29.684Z,41.60
2018-07-23T13:48:58.076Z,42.10
2018-07-23T13:51:26.399Z,40.80
2018-07-23T13:53:54.870Z,41.10
2018-07-23T13:56:23.211Z,39.50
2018-07-23T13:58:51.585Z,40.30
2018-07-23T14:01:19.932Z,40.10
2018-07-23T14:03:48.217Z,41.50
2018-07-23T14:06:16.570Z,40.00
2018-07-23T14:08:48.071Z,39.70
2018-07-23T14:11:16.402Z,39.40
2018-07-23T14:13:44.716Z,40.50
2018-07-23T14:16:13.010Z,40.20
2018-07-23T14:18:41.315Z,38.90
2018-07-23T14:21:09.613Z,39.00
2018-07-23T14:23:38.059Z,40.20
2018-07-23T14:26:06.362Z,40.50
2018-07-23T14:28:34.683Z,39.60
2018-07-23T14:31:03.082Z,39.60
2018-07-23T14:33:31.458Z,39.80
2018-07-23T14:35:59.820Z,40.80
2018-07-23T14:38:28.198Z,39.60
2018-07-23T14:40:56.483Z,40.70
2018-07-23T14:43:24.797Z,40.20
2018-07-23T14:45:53.125Z,39.40
2018-07-23T14:48:21.426Z,40.60
2018-07-23T14:50:49.798Z,40.50
2018-07-23T14:53:18.159Z,41.00
2018-07-23T14:55:46.498Z,40.80
2018-07-23T14:58:14.982Z,41.00
2018-07-23T15:00:43.304Z,40.00
2018-07-23T15:03:11.635Z,40.60
2018-07-23T15:05:39.975Z,41.10
2018-07-23T15:08:08.868Z,40.90
2018-07-23T15:10:37.191Z,42.00
2018-07-23T15:15:34.026Z,42.00
2018-07-23T15:18:02.410Z,41.40
2018-07-23T15:20:30.733Z,43.00
2018-07-23T15:22:59.137Z,43.20
2018-07-23T15:25:27.468Z,43.40
2018-07-23T15:27:55.791Z,44.30
2018-07-23T15:30:24.123Z,42.50
2018-07-23T15:35:20.475Z,42.20
2018-07-23T15:37:48.905Z,42.40
2018-07-23T15:40:17.178Z,40.60
2018-07-23T15:42:45.658Z,41.60
2018-07-23T15:45:13.986Z,40.60
2018-07-23T15:47:42.256Z,39.50
2018-07-23T15:50:10.599Z,40.70
2018-07-23T15:52:38.955Z,40.50
2018-07-23T15:55:07.314Z,40.00
2018-07-23T15:57:35.594Z,38.90
2018-07-23T16:02:31.984Z,36.50
2018-07-23T16:05:00.410Z,34.80
2018-07-23T16:07:28.737Z,34.50
2018-07-23T16:09:57.076Z,30.90
2018-07-23T16:12:25.613Z,29.70
2018-07-23T16:14:54.100Z,29.20
2018-07-23T16:17:22.455Z,27.80
2018-07-23T16:19:51.520Z,27.40
2018-07-23T16:22:19.853Z,26.60
2018-07-23T16:24:48.171Z,27.20
2018-07-23T16:27:16.692Z,25.90
2018-07-23T16:29:45.485Z,25.70
2018-07-23T16:32:20.859Z,25.70
2018-07-23T16:34:49.151Z,26.20
2018-07-23T16:37:17.540Z,27.40
2018-07-23T16:39:45.936Z,26.70
2018-07-23T16:42:14.274Z,26.20
2018-07-23T16:44:42.689Z,26.30
2018-07-23T16:47:10.997Z,26.20
2018-07-23T16:49:39.317Z,25.90
2018-07-23T16:54:36.358Z,26.10
2018-07-23T16:57:04.988Z,25.50
2018-07-23T16:59:35.138Z,26.30
2018-07-23T17:02:04.651Z,25.40
2018-07-23T17:04:33.012Z,25.50
2018-07-23T17:07:01.388Z,25.30
2018-07-23T17:09:29.767Z,24.80
2018-07-23T17:11:58.158Z,25.00
2018-07-23T17:16:56.697Z,24.80
2018-07-23T17:19:26.270Z,25.40
2018-07-23T17:21:56.314Z,25.50
2018-07-23T17:24:24.691Z,24.10
2018-07-23T17:26:53.099Z,25.10
2018-07-23T17:29:21.625Z,25.30
2018-07-23T17:31:49.998Z,25.20
2018-07-23T17:34:18.562Z,25.50
2018-07-23T17:36:46.942Z,27.40
2018-07-23T17:39:15.367Z,29.90
2018-07-23T17:41:43.772Z,32.60
2018-07-23T17:44:12.133Z,34.90
2018-07-23T17:46:40.573Z,35.80
2018-07-23T17:49:09.125Z,37.50
2018-07-23T17:51:37.460Z,37.80
2018-07-23T17:54:05.835Z,37.90
2018-07-23T17:56:34.237Z,38.30
2018-07-23T17:59:02.915Z,39.50
2018-07-23T18:01:31.246Z,40.30
2018-07-23T18:03:59.890Z,40.20
2018-07-23T18:06:28.412Z,40.30
2018-07-23T18:08:57.238Z,40.20
2018-07-23T18:11:25.762Z,40.80
2018-07-23T18:13:54.186Z,41.00
2018-07-23T18:16:22.606Z,41.50
2018-07-23T18:18:51.036Z,41.90
2018-07-23T18:21:19.405Z,41.70
2018-07-23T18:23:47.817Z,41.90
2018-07-23T18:26:16.175Z,43.00
2018-07-23T18:28:44.490Z,42.30
2018-07-23T18:31:12.896Z,42.20
2018-07-23T18:33:41.759Z,42.50
2018-07-23T18:36:10.228Z,42.40
2018-07-23T18:38:38.724Z,43.00
2018-07-23T18:41:07.029Z,43.40
2018-07-23T18:43:35.382Z,44.10
2018-07-23T18:46:04.009Z,43.10
2018-07-23T18:49:46.020Z,43.70
2018-07-23T18:52:15.578Z,44.40
2018-07-23T18:54:45.509Z,44.00
2018-07-23T18:57:18.492Z,44.10
2018-07-23T18:59:46.961Z,46.20
2018-07-23T19:02:18.677Z,44.90
2018-07-23T19:04:47.020Z,45.20
2018-07-23T19:07:15.575Z,45.00
2018-07-23T19:09:46.014Z,45.20
2018-07-23T19:12:15.110Z,45.90
2018-07-23T19:14:44.157Z,47.70
2018-07-23T19:17:14.245Z,51.00
2018-07-23T19:19:44.832Z,54.80
2018-07-23T19:22:13.249Z,48.50
2018-07-23T19:24:41.879Z,51.00
2018-07-23T19:27:10.420Z,51.30
2018-07-23T19:29:38.898Z,53.10
2018-07-23T19:32:07.431Z,54.00
2018-07-23T19:34:42.082Z,53.90
2018-07-23T19:37:14.450Z,50.40
2018-07-23T19:39:42.962Z,55.50
2018-07-23T19:44:40.056Z,55.30
2018-07-23T19:47:08.447Z,54.60
2018-07-23T19:49:36.874Z,54.40
2018-07-23T19:52:05.324Z,54.70
2018-07-23T19:54:33.685Z,51.40
2018-07-23T19:57:02.379Z,53.40
2018-07-23T19:59:30.778Z,53.40
2018-07-23T20:01:59.226Z,54.40
2018-07-23T20:04:28.597Z,54.50
2018-07-23T20:06:57.096Z,56.30
2018-07-23T20:09:25.566Z,55.30
2018-07-23T20:11:54.080Z,55.00
2018-07-23T20:14:22.657Z,55.10
2018-07-23T20:16:54.900Z,55.30
2018-07-23T20:19:23.791Z,54.60
2018-07-23T20:21:54.044Z,57.40
2018-07-23T20:24:22.841Z,55.80
2018-07-23T20:26:51.924Z,54.90
2018-07-23T20:29:20.707Z,55.40
2018-07-23T20:31:49.225Z,56.90
2018-07-23T20:34:17.605Z,56.10
2018-07-23T20:36:47.078Z,55.60
2018-07-23T20:39:17.198Z,56.10
2018-07-23T20:41:46.511Z,56.80
2018-07-23T20:44:14.863Z,57.70
2018-07-23T20:46:44.107Z,57.50
2018-07-23T20:49:12.418Z,58.00
2018-07-23T20:51:40.733Z,57.70
2018-07-23T20:54:09.103Z,59.10
2018-07-23T20:56:37.524Z,58.30
2018-07-23T20:59:06.282Z,58.90
2018-07-23T21:01:34.761Z,59.30
2018-07-23T21:04:04.872Z,59.00
2018-07-23T21:06:33.239Z,58.60
2018-07-23T21:09:02.474Z,58.60
2018-07-23T21:11:31.720Z,60.20
2018-07-23T21:14:00.813Z,59.40
2018-07-23T21:16:29.706Z,60.40
2018-07-23T21:18:58.109Z,60.70
2018-07-23T21:21:26.944Z,61.50
2018-07-23T21:23:55.231Z,60.90
2018-07-23T21:26:23.548Z,59.80
2018-07-23T21:28:51.878Z,59.90
2018-07-23T21:31:20.298Z,59.90
2018-07-23T21:33:48.607Z,60.00
2018-07-23T21:36:16.967Z,60.30
2018-07-23T21:38:45.321Z,59.60
2018-07-23T21:41:13.970Z,60.60
2018-07-23T21:43:42.338Z,60.90
2018-07-23T21:46:10.773Z,60.20
2018-07-23T21:48:39.133Z,60.20
2018-07-23T21:51:07.421Z,60.80
2018-07-23T21:53:35.885Z,61.60
2018-07-23T21:56:04.210Z,61.50
2018-07-23T21:58:32.651Z,61.40
2018-07-23T22:01:01.024Z,61.20
2018-07-23T22:03:29.401Z,60.40
2018-07-23T22:05:57.751Z,60.50
2018-07-23T22:08:26.079Z,60.80
2018-07-23T22:10:54.399Z,61.30
2018-07-23T22:13:22.698Z,61.10
2018-07-23T22:15:51.093Z,60.70
2018-07-23T22:18:19.575Z,61.40
2018-07-23T22:20:48.436Z,61.10
2018-07-23T22:23:16.737Z,61.20
2018-07-23T22:25:45.097Z,61.10
2018-07-23T22:28:13.442Z,60.90
2018-07-23T22:30:41.716Z,61.00
2018-07-23T22:33:10.429Z,61.30
2018-07-23T22:35:38.688Z,62.30
2018-07-23T22:38:06.993Z,62.40
2018-07-23T22:40:35.493Z,62.80
2018-07-23T22:43:03.801Z,62.90
2018-07-23T22:48:00.169Z,65.00
2018-07-23T22:50:28.657Z,65.50
2018-07-23T22:52:56.960Z,66.20
2018-07-23T22:55:25.263Z,66.10
2018-07-23T22:57:53.714Z,66.80
2018-07-23T23:00:22.059Z,67.40
2018-07-23T23:02:50.330Z,67.70
2018-07-23T23:05:18.631Z,68.30
2018-07-23T23:07:46.978Z,69.00
2018-07-23T23:10:15.257Z,68.80
2018-07-23T23:12:43.576Z,69.00
2018-07-23T23:15:11.995Z,69.40
2018-07-23T23:17:40.289Z,69.00
2018-07-23T23:20:09.180Z,69.80
2018-07-23T23:22:37.718Z,70.60
2018-07-23T23:25:06.101Z,70.90
2018-07-23T23:27:34.426Z,71.60
2018-07-23T23:30:03.148Z,72.20
2018-07-23T23:32:31.824Z,72.10
2018-07-23T23:35:00.156Z,72.80
2018-07-23T23:37:28.533Z,73.40
2018-07-23T23:39:56.970Z,73.60
2018-07-23T23:42:25.323Z,73.90
2018-07-23T23:44:53.631Z,74.00
2018-07-23T23:47:21.962Z,74.60
2018-07-23T23:49:50.305Z,75.00
2018-07-23T23:52:18.756Z,75.60
2018-07-23T23:54:47.141Z,75.70
2018-07-23T23:57:15.558Z,75.70
2018-07-23T23:59:44.822Z,76.10
